createdAt,value
2023-01-29T00:00:22.446Z,101169.56
2023-01-29T00:02:50.949Z,101168.50
2023-01-29T00:05:28.325Z,101177.75
2023-01-29T00:07:57.550Z,101160.56
2023-01-29T00:10:26.895Z,101157.03
2023-01-29T00:12:55.823Z,101163.53
2023-01-29T00:15:25.698Z,101149.84
2023-01-29T00:17:54.498Z,101155.63
2023-01-29T00:20:22.950Z,101149.00
2023-01-29T00:22:51.385Z,101143.75
2023-01-29T00:25:19.863Z,101135.16
2023-01-29T00:27:48.291Z,101141.72
2023-01-29T00:30:19.805Z,101134.03
2023-01-29T00:32:49.957Z,101130.63
2023-01-29T00:35:18.487Z,101132.25
2023-01-29T00:37:47.143Z,101128.19
2023-01-29T00:40:16.074Z,101130.78
2023-01-29T00:43:03.489Z,101128.41
2023-01-29T00:45:32.050Z,101125.94
2023-01-29T00:48:01.981Z,101108.94
2023-01-29T00:50:30.556Z,101124.38
2023-01-29T00:52:59.212Z,101128.56
2023-01-29T00:55:28.006Z,101115.09
2023-01-29T00:57:56.535Z,101118.44
2023-01-29T01:00:26.209Z,101114.94
2023-01-29T01:03:08.913Z,101114.00
2023-01-29T01:05:39.278Z,101100.25
2023-01-29T01:08:28.807Z,101091.63
2023-01-29T01:11:02.252Z,101083.88
2023-01-29T01:13:32.345Z,101077.16
2023-01-29T01:16:00.924Z,101085.69
2023-01-29T01:18:31.908Z,101068.78
2023-01-29T01:21:01.708Z,101072.22
2023-01-29T01:23:30.110Z,101071.47
2023-01-29T01:25:59.141Z,101072.31
2023-01-29T01:28:28.203Z,101075.41
2023-01-29T01:30:56.704Z,101066.16
2023-01-29T01:33:25.479Z,101067.81
2023-01-29T01:35:53.983Z,101073.69
2023-01-29T01:38:23.804Z,101073.84
2023-01-29T01:40:52.219Z,101078.91
2023-01-29T01:43:20.562Z,101071.16
2023-01-29T01:45:49.693Z,101065.94
2023-01-29T01:48:22.967Z,101071.81
2023-01-29T01:50:55.100Z,101079.47
2023-01-29T01:53:34.829Z,101075.25
2023-01-29T01:56:07.844Z,101076.16
2023-01-29T01:58:41.327Z,101068.56
2023-01-29T02:01:10.871Z,101076.22
2023-01-29T02:04:09.896Z,101072.97
2023-01-29T02:06:59.775Z,101078.75
2023-01-29T02:09:35.768Z,101085.53
2023-01-29T02:12:06.938Z,101084.69
2023-01-29T02:14:40.168Z,101078.69
2023-01-29T02:17:11.714Z,101078.69
2023-01-29T02:19:51.661Z,101073.53
2023-01-29T02:22:55.560Z,101068.41
2023-01-29T02:26:16.554Z,101070.06
2023-01-29T02:28:53.742Z,101063.19
2023-01-29T02:31:31.815Z,101061.66
2023-01-29T02:34:13.060Z,101055.75
2023-01-29T02:36:48.948Z,101053.91
2023-01-29T02:39:25.184Z,101047.13
2023-01-29T02:42:02.880Z,101044.44
2023-01-29T02:44:41.156Z,101047.78
2023-01-29T02:47:18.903Z,101038.50
2023-01-29T02:49:51.727Z,101041.09
2023-01-29T02:52:24.569Z,101033.34
2023-01-29T02:54:59.940Z,101037.66
2023-01-29T02:57:33.041Z,101046.91
2023-01-29T03:00:10.478Z,101047.63
2023-01-29T03:02:46.133Z,101045.09
2023-01-29T03:05:19.517Z,101028.06
2023-01-29T03:07:55.668Z,101024.75
2023-01-29T03:10:31.336Z,101023.09
2023-01-29T03:13:05.853Z,101027.28
2023-01-29T03:15:47.031Z,101034.16
2023-01-29T03:18:19.427Z,101034.97
2023-01-29T03:20:53.494Z,101031.63
2023-01-29T03:23:48.336Z,101022.38
2023-01-29T03:26:36.998Z,101019.84
2023-01-29T03:29:24.566Z,101016.53
2023-01-29T03:32:06.649Z,101025.84
2023-01-29T03:34:44.065Z,101024.19
2023-01-29T03:37:19.955Z,101028.28
2023-01-29T03:39:48.588Z,101020.56
2023-01-29T03:42:25.814Z,101018.81
2023-01-29T03:45:08.404Z,101027.22
2023-01-29T03:47:47.385Z,101025.50
2023-01-29T03:50:39.367Z,101024.63
2023-01-29T03:53:18.231Z,101011.88
2023-01-29T03:55:58.397Z,101015.22
2023-01-29T03:58:35.998Z,101011.72
2023-01-29T04:01:12.265Z,101011.88
2023-01-29T04:03:48.823Z,101006.09
2023-01-29T04:06:22.310Z,101010.44
2023-01-29T04:08:58.387Z,101002.84
2023-01-29T04:11:28.538Z,101008.84
2023-01-29T04:13:58.548Z,101003.78
2023-01-29T04:16:32.330Z,101003.78
2023-01-29T04:19:02.232Z,101000.38
2023-01-29T04:21:33.022Z,101002.97
2023-01-29T04:24:01.585Z,100996.41
2023-01-29T04:26:56.858Z,100981.94
2023-01-29T04:29:48.700Z,100979.47
2023-01-29T04:32:23.602Z,100986.06
2023-01-29T04:35:03.570Z,100988.75
2023-01-29T04:37:41.170Z,100983.69
2023-01-29T04:40:21.603Z,100975.28
2023-01-29T04:43:03.138Z,100982.88
2023-01-29T04:45:47.405Z,100979.47
2023-01-29T04:48:23.658Z,100983.13
2023-01-29T04:51:02.378Z,100982.38
2023-01-29T04:53:40.124Z,100968.03
2023-01-29T04:56:16.252Z,100956.25
2023-01-29T04:58:49.894Z,100967.19
2023-01-29T05:01:21.063Z,100965.41
2023-01-29T05:03:54.930Z,100965.31
2023-01-29T05:06:26.569Z,100968.69
2023-01-29T05:08:56.485Z,100971.16
2023-01-29T05:11:26.432Z,100974.50
2023-01-29T05:13:57.130Z,100973.69
2023-01-29T05:16:29.490Z,100967.84
2023-01-29T05:18:58.051Z,100965.25
2023-01-29T05:21:29.051Z,100968.63
2023-01-29T05:24:16.534Z,100962.72
2023-01-29T05:27:05.593Z,100963.56
2023-01-29T05:29:34.060Z,100956.84
2023-01-29T05:32:03.628Z,100959.38
2023-01-29T05:34:32.042Z,100957.66
2023-01-29T05:37:01.761Z,100950.91
2023-01-29T05:39:30.334Z,100942.47
2023-01-29T05:41:58.903Z,100931.38
2023-01-29T05:44:27.338Z,100942.38
2023-01-29T05:46:55.734Z,100934.63
2023-01-29T05:49:24.267Z,100942.31
2023-01-29T05:51:52.659Z,100943.97
2023-01-29T05:54:22.472Z,100945.72
2023-01-29T05:56:51.062Z,100938.09
2023-01-29T05:59:19.540Z,100940.69
2023-01-29T06:01:48.095Z,100941.44
2023-01-29T06:04:16.524Z,100932.91
2023-01-29T06:06:44.903Z,100948.09
2023-01-29T06:09:13.597Z,100953.16
2023-01-29T06:11:43.506Z,100959.06
2023-01-29T06:14:11.896Z,100952.44
2023-01-29T06:16:40.267Z,100950.72
2023-01-29T06:19:08.726Z,100943.16
2023-01-29T06:21:37.155Z,100943.22
2023-01-29T06:24:06.347Z,100945.66
2023-01-29T06:26:34.838Z,100949.03
2023-01-29T06:29:04.545Z,100949.97
2023-01-29T06:31:38.833Z,100952.44
2023-01-29T06:34:07.981Z,100931.31
2023-01-29T06:36:36.551Z,100939.78
2023-01-29T06:39:05.653Z,100939.06
2023-01-29T06:41:34.503Z,100942.47
2023-01-29T06:44:04.460Z,100942.59
2023-01-29T06:46:33.189Z,100939.28
2023-01-29T06:49:01.701Z,100936.81
2023-01-29T06:51:30.184Z,100940.19
2023-01-29T06:53:58.776Z,100936.13
2023-01-29T06:56:29.187Z,100942.97
2023-01-29T06:58:57.654Z,100945.50
2023-01-29T07:01:36.184Z,100942.88
2023-01-29T07:04:05.329Z,100943.88
2023-01-29T07:06:34.326Z,100937.97
2023-01-29T07:09:02.904Z,100928.69
2023-01-29T07:11:32.090Z,100921.09
2023-01-29T07:14:00.647Z,100907.63
2023-01-29T07:16:30.426Z,100910.97
2023-01-29T07:18:58.984Z,100915.22
2023-01-29T07:21:28.178Z,100918.72
2023-01-29T07:23:56.652Z,100922.25
2023-01-29T07:26:25.117Z,100924.06
2023-01-29T07:28:53.547Z,100919.91
2023-01-29T07:31:22.993Z,100930.13
2023-01-29T07:33:52.915Z,100946.19
2023-01-29T07:36:21.487Z,100945.34
2023-01-29T07:38:51.749Z,100944.69
2023-01-29T07:41:20.636Z,100942.28
2023-01-29T07:43:49.395Z,100947.41
2023-01-29T07:46:17.904Z,100952.47
2023-01-29T07:48:46.417Z,100941.78
2023-01-29T07:51:18.184Z,100947.03
2023-01-29T07:53:47.242Z,100938.63
2023-01-29T07:56:15.873Z,100933.72
2023-01-29T07:58:44.362Z,100921.22
2023-01-29T08:01:12.947Z,100915.59
2023-01-29T08:03:41.468Z,100926.91
2023-01-29T08:06:09.985Z,100923.72
2023-01-29T08:08:39.719Z,100932.38
2023-01-29T08:11:08.158Z,100929.75
2023-01-29T08:13:36.550Z,100927.91
2023-01-29T08:16:06.850Z,100920.31
2023-01-29T08:18:35.596Z,100899.19
2023-01-29T08:21:05.196Z,100896.69
2023-01-29T08:23:33.713Z,100902.56
2023-01-29T08:26:04.548Z,100904.25
2023-01-29T08:28:33.225Z,100903.31
2023-01-29T08:31:01.887Z,100903.31
2023-01-29T08:33:38.674Z,100897.50
2023-01-29T08:36:09.199Z,100907.69
2023-01-29T08:38:37.717Z,100905.97
2023-01-29T08:41:08.467Z,100917.84
2023-01-29T08:43:38.629Z,100917.16
2023-01-29T08:46:08.463Z,100912.22
2023-01-29T08:48:37.095Z,100904.78
2023-01-29T08:51:05.889Z,100899.97
2023-01-29T08:53:34.510Z,100897.50
2023-01-29T08:56:07.766Z,100895.91
2023-01-29T08:58:36.286Z,100899.22
2023-01-29T09:01:09.374Z,100901.75
2023-01-29T09:03:41.081Z,100889.06
2023-01-29T09:06:11.754Z,100892.50
2023-01-29T09:08:40.521Z,100890.94
2023-01-29T09:11:10.740Z,100886.00
2023-01-29T09:13:39.390Z,100878.72
2023-01-29T09:16:08.854Z,100871.38
2023-01-29T09:18:37.575Z,100869.81
2023-01-29T09:21:06.906Z,100875.88
2023-01-29T09:23:35.423Z,100857.19
2023-01-29T09:26:04.208Z,100858.94
2023-01-29T09:28:35.050Z,100875.72
2023-01-29T09:31:04.098Z,100869.63
2023-01-29T09:33:32.555Z,100871.38
2023-01-29T09:36:01.081Z,100867.88
2023-01-29T09:38:29.495Z,100866.25
2023-01-29T09:41:09.991Z,100860.28
2023-01-29T09:43:50.277Z,100865.34
2023-01-29T09:46:26.073Z,100860.41
2023-01-29T09:49:02.958Z,100845.06
2023-01-29T09:51:41.732Z,100842.72
2023-01-29T09:54:22.975Z,100853.09
2023-01-29T09:56:56.334Z,100835.66
2023-01-29T09:59:31.120Z,100838.41
2023-01-29T10:02:18.700Z,100839.53
2023-01-29T10:05:09.993Z,100831.22
2023-01-29T10:08:28.439Z,100831.50
2023-01-29T10:11:07.373Z,100827.44
2023-01-29T10:13:49.569Z,100830.94
2023-01-29T10:16:40.901Z,100826.72
2023-01-29T10:19:53.929Z,100822.91
2023-01-29T10:22:58.796Z,100808.25
2023-01-29T10:25:27.393Z,100819.81
2023-01-29T10:27:59.492Z,100818.84
2023-01-29T10:30:34.712Z,100812.81
2023-01-29T10:33:08.526Z,100811.91
2023-01-29T10:35:42.487Z,100810.06
2023-01-29T10:38:26.409Z,100816.72
2023-01-29T10:41:08.174Z,100809.13
2023-01-29T10:43:50.059Z,100812.47
2023-01-29T10:46:32.971Z,100811.53
2023-01-29T10:49:18.584Z,100807.09
2023-01-29T10:52:05.766Z,100813.66
2023-01-29T10:54:58.304Z,100807.47
2023-01-29T10:57:46.375Z,100792.84
2023-01-29T11:00:22.384Z,100798.75
2023-01-29T11:02:53.098Z,100789.47
2023-01-29T11:05:30.972Z,100789.41
2023-01-29T11:08:08.306Z,100781.03
2023-01-29T11:10:47.172Z,100784.78
2023-01-29T11:13:17.486Z,100780.75
2023-01-29T11:15:46.032Z,100778.47
2023-01-29T11:18:16.331Z,100777.00
2023-01-29T11:20:47.463Z,100757.94
2023-01-29T11:23:28.900Z,100768.28
2023-01-29T11:25:59.890Z,100757.25
2023-01-29T11:28:40.256Z,100746.22
2023-01-29T11:31:22.026Z,100742.59
2023-01-29T11:33:53.220Z,100733.31
2023-01-29T11:36:37.166Z,100727.25
2023-01-29T11:39:20.736Z,100720.47
2023-01-29T11:41:54.220Z,100713.53
2023-01-29T11:44:30.112Z,100706.75
2023-01-29T11:47:14.203Z,100700.81
2023-01-29T11:49:48.009Z,100701.69
2023-01-29T11:52:20.902Z,100689.72
2023-01-29T11:54:54.705Z,100698.09
2023-01-29T11:57:34.135Z,100696.38
2023-01-29T12:00:06.691Z,100697.22
2023-01-29T12:02:39.066Z,100689.69
2023-01-29T12:05:17.338Z,100686.34
2023-01-29T12:07:51.850Z,100681.25
2023-01-29T12:10:35.619Z,100692.41
2023-01-29T12:13:20.138Z,100686.34
2023-01-29T12:15:49.980Z,100671.03
2023-01-29T12:18:24.959Z,100675.94
2023-01-29T12:21:01.238Z,100657.16
2023-01-29T12:23:41.729Z,100659.63
2023-01-29T12:26:17.974Z,100649.56
2023-01-29T12:28:55.443Z,100658.06
2023-01-29T12:31:34.425Z,100657.22
2023-01-29T12:34:13.896Z,100652.09
2023-01-29T12:36:53.255Z,100655.31
2023-01-29T12:39:23.563Z,100647.72
2023-01-29T12:41:59.215Z,100651.13
2023-01-29T12:44:35.140Z,100641.84
2023-01-29T12:47:08.118Z,100629.97
2023-01-29T12:49:41.056Z,100629.97
2023-01-29T12:52:16.606Z,100617.16
2023-01-29T12:54:55.045Z,100619.75
2023-01-29T12:57:29.946Z,100620.56
2023-01-29T13:00:06.215Z,100611.97
2023-01-29T13:02:41.229Z,100610.94
2023-01-29T13:05:23.360Z,100616.16
2023-01-29T13:07:59.432Z,100624.53
2023-01-29T13:10:34.230Z,100630.41
2023-01-29T13:13:08.454Z,100631.22
2023-01-29T13:15:40.778Z,100639.75
2023-01-29T13:18:41.453Z,100640.84
2023-01-29T13:21:19.411Z,100647.66
2023-01-29T13:23:52.751Z,100640.97
2023-01-29T13:26:24.347Z,100629.97
2023-01-29T13:28:53.908Z,100627.31
2023-01-29T13:31:33.143Z,100636.75
2023-01-29T13:34:15.891Z,100621.53
2023-01-29T13:36:47.410Z,100629.31
2023-01-29T13:39:32.177Z,100622.38
2023-01-29T13:42:05.233Z,100618.84
2023-01-29T13:44:39.863Z,100604.38
2023-01-29T13:47:12.540Z,100590.78
2023-01-29T13:49:45.262Z,100592.44
2023-01-29T13:52:33.166Z,100597.34
2023-01-29T13:55:05.849Z,100593.69
2023-01-29T13:57:54.724Z,100595.25
2023-01-29T14:00:58.578Z,100593.50
2023-01-29T14:04:05.928Z,100593.41
2023-01-29T14:06:49.153Z,100601.88
2023-01-29T14:10:03.607Z,100610.97
2023-01-29T14:12:48.177Z,100620.13
2023-01-29T14:15:32.867Z,100630.16
2023-01-29T14:18:26.058Z,100642.81
2023-01-29T14:21:06.669Z,100640.16
2023-01-29T14:23:42.768Z,100642.69
2023-01-29T14:26:33.287Z,100635.09
2023-01-29T14:29:25.506Z,100621.50
2023-01-29T14:32:10.535Z,100612.19
2023-01-29T14:34:46.012Z,100627.44
2023-01-29T14:37:25.638Z,100620.00
2023-01-29T14:39:57.660Z,100617.47
2023-01-29T14:42:33.315Z,100609.13
2023-01-29T14:45:12.560Z,100600.72
2023-01-29T14:48:21.592Z,100603.22
2023-01-29T14:51:00.228Z,100601.38
2023-01-29T14:53:54.406Z,100592.94
2023-01-29T14:56:32.405Z,100611.50
2023-01-29T14:59:19.109Z,100610.56
2023-01-29T15:01:55.299Z,100614.75
2023-01-29T15:04:28.601Z,100618.97
2023-01-29T15:07:04.752Z,100612.22
2023-01-29T15:09:41.804Z,100609.66
2023-01-29T15:12:22.695Z,100601.25
2023-01-29T15:15:00.668Z,100591.09
2023-01-29T15:17:38.673Z,100578.44
2023-01-29T15:20:30.395Z,100581.00
2023-01-29T15:22:59.092Z,100575.13
2023-01-29T15:25:33.963Z,100576.03
2023-01-29T15:28:08.511Z,100577.75
2023-01-29T15:30:38.747Z,100582.00
2023-01-29T15:33:12.176Z,100571.81
2023-01-29T15:35:43.619Z,100559.84
2023-01-29T15:38:19.269Z,100566.59
2023-01-29T15:40:56.521Z,100564.03
2023-01-29T15:43:28.436Z,100556.50
2023-01-29T15:46:00.899Z,100557.47
2023-01-29T15:48:36.049Z,100558.28
2023-01-29T15:51:08.581Z,100551.47
2023-01-29T15:53:43.282Z,100557.47
2023-01-29T15:56:14.305Z,100545.72
2023-01-29T15:58:44.079Z,100537.31
2023-01-29T16:01:12.989Z,100542.38
2023-01-29T16:03:44.305Z,100536.47
2023-01-29T16:06:13.726Z,100533.03
2023-01-29T16:08:43.604Z,100547.47
2023-01-29T16:11:12.390Z,100543.25
2023-01-29T16:13:43.329Z,100554.38
2023-01-29T16:16:25.339Z,100549.31
2023-01-29T16:19:00.844Z,100557.81
2023-01-29T16:21:34.161Z,100550.28
2023-01-29T16:24:09.852Z,100549.31
2023-01-29T16:26:40.955Z,100545.03
2023-01-29T16:29:13.093Z,100543.38
2023-01-29T16:31:43.665Z,100553.44
2023-01-29T16:34:26.890Z,100553.63
2023-01-29T16:36:56.670Z,100551.03
2023-01-29T16:39:29.080Z,100563.84
2023-01-29T16:42:25.739Z,100557.16
2023-01-29T16:45:01.140Z,100554.50
2023-01-29T16:47:35.069Z,100565.53
2023-01-29T16:50:28.552Z,100559.56
2023-01-29T16:53:01.915Z,100549.41
2023-01-29T16:55:38.550Z,100552.84
2023-01-29T16:58:17.095Z,100558.16
2023-01-29T17:00:48.256Z,100556.50
2023-01-29T17:03:19.399Z,100549.72
2023-01-29T17:05:51.021Z,100539.72
2023-01-29T17:08:26.667Z,100543.09
2023-01-29T17:10:55.374Z,100539.72
2023-01-29T17:13:31.738Z,100529.53
2023-01-29T17:16:03.824Z,100533.72
2023-01-29T17:18:32.426Z,100534.66
2023-01-29T17:21:02.304Z,100533.84
2023-01-29T17:23:30.926Z,100526.25
2023-01-29T17:26:00.538Z,100518.63
2023-01-29T17:28:29.378Z,100511.84
2023-01-29T17:31:06.159Z,100517.72
2023-01-29T17:33:35.325Z,100507.59
2023-01-29T17:36:06.156Z,100511.03
2023-01-29T17:38:34.997Z,100495.66
2023-01-29T17:41:11.674Z,100505.19
2023-01-29T17:43:40.071Z,100491.56
2023-01-29T17:46:14.583Z,100483.22
2023-01-29T17:48:43.965Z,100477.28
2023-01-29T17:51:16.844Z,100473.81
2023-01-29T17:53:47.491Z,100464.38
2023-01-29T17:56:18.739Z,100456.78
2023-01-29T17:58:47.217Z,100457.59
2023-01-29T18:01:16.444Z,100444.72
2023-01-29T18:03:44.927Z,100454.13
2023-01-29T18:06:27.242Z,100433.84
2023-01-29T18:08:56.415Z,100438.94
2023-01-29T18:11:25.432Z,100421.19
2023-01-29T18:13:53.903Z,100408.47
2023-01-29T18:16:22.897Z,100411.78
2023-01-29T18:18:53.050Z,100411.09
2023-01-29T18:21:22.805Z,100407.69
2023-01-29T18:23:51.401Z,100412.75
2023-01-29T18:26:19.974Z,100413.63
2023-01-29T18:28:48.332Z,100416.13
2023-01-29T18:31:16.779Z,100413.56
2023-01-29T18:33:45.442Z,100417.09
2023-01-29T18:36:15.872Z,100406.09
2023-01-29T18:38:45.873Z,100409.59
2023-01-29T18:41:14.623Z,100423.34
2023-01-29T18:43:44.309Z,100409.25
2023-01-29T18:46:14.053Z,100416.13
2023-01-29T18:48:43.105Z,100405.00
2023-01-29T18:51:11.728Z,100410.16
2023-01-29T18:53:40.203Z,100407.69
2023-01-29T18:56:12.283Z,100402.56
2023-01-29T18:58:41.078Z,100400.91
2023-01-29T19:01:12.111Z,100392.41
2023-01-29T19:03:41.838Z,100390.81
2023-01-29T19:06:12.447Z,100390.69
2023-01-29T19:08:43.065Z,100386.56
2023-01-29T19:11:13.123Z,100390.84
2023-01-29T19:13:42.871Z,100391.81
2023-01-29T19:16:13.563Z,100380.88
2023-01-29T19:18:42.468Z,100392.84
2023-01-29T19:21:13.414Z,100384.31
2023-01-29T19:23:43.106Z,100394.47
2023-01-29T19:26:14.134Z,100382.59
2023-01-29T19:28:43.010Z,100379.94
2023-01-29T19:31:11.517Z,100375.00
2023-01-29T19:33:40.725Z,100365.59
2023-01-29T19:36:10.366Z,100365.72
2023-01-29T19:38:39.926Z,100368.34
2023-01-29T19:41:10.003Z,100363.31
2023-01-29T19:43:42.266Z,100350.53
2023-01-29T19:46:13.055Z,100350.63
2023-01-29T19:48:41.722Z,100354.84
2023-01-29T19:51:12.247Z,100349.63
2023-01-29T19:53:44.267Z,100352.19
2023-01-29T19:56:15.954Z,100350.50
2023-01-29T19:58:46.134Z,100345.41
2023-01-29T20:01:18.179Z,100337.84
2023-01-29T20:03:48.498Z,100340.50
2023-01-29T20:06:21.272Z,100346.50
2023-01-29T20:08:49.695Z,100334.66
2023-01-29T20:11:24.863Z,100322.84
2023-01-29T20:13:55.042Z,100320.19
2023-01-29T20:16:24.585Z,100310.97
2023-01-29T20:18:53.378Z,100309.28
2023-01-29T20:21:23.027Z,100305.81
2023-01-29T20:23:52.992Z,100291.34
2023-01-29T20:26:22.170Z,100300.59
2023-01-29T20:28:51.227Z,100297.09
2023-01-29T20:31:21.603Z,100299.53
2023-01-29T20:33:50.644Z,100292.66
2023-01-29T20:36:19.567Z,100276.59
2023-01-29T20:38:48.092Z,100270.56
2023-01-29T20:41:18.652Z,100276.50
2023-01-29T20:43:50.220Z,100261.25
2023-01-29T20:46:21.825Z,100253.69
2023-01-29T20:48:53.189Z,100255.44
2023-01-29T20:51:21.944Z,100264.84
2023-01-29T20:53:50.356Z,100252.97
2023-01-29T20:56:23.706Z,100234.31
2023-01-29T20:59:05.194Z,100250.50
2023-01-29T21:01:35.349Z,100241.22
2023-01-29T21:04:04.142Z,100240.34
2023-01-29T21:06:33.072Z,100240.28
2023-01-29T21:09:01.554Z,100240.28
2023-01-29T21:11:29.967Z,100247.03
2023-01-29T21:14:05.780Z,100241.19
2023-01-29T21:16:35.943Z,100240.25
2023-01-29T21:19:04.504Z,100213.97
2023-01-29T21:21:32.948Z,100223.38
2023-01-29T21:24:01.406Z,100233.59
2023-01-29T21:26:29.929Z,100243.03
2023-01-29T21:28:58.433Z,100231.22
2023-01-29T21:31:26.942Z,100233.00
2023-01-29T21:33:57.065Z,100234.66
2023-01-29T21:36:25.464Z,100220.28
2023-01-29T21:38:53.932Z,100227.06
2023-01-29T21:41:43.852Z,100218.66
2023-01-29T21:44:11.707Z,100217.00
2023-01-29T21:46:40.235Z,100222.13
2023-01-29T21:49:10.084Z,100209.41
2023-01-29T21:51:38.445Z,100205.94
2023-01-29T21:54:07.074Z,100188.94
2023-01-29T21:56:35.572Z,100188.16
2023-01-29T21:59:04.022Z,100184.81
2023-01-29T22:01:37.643Z,100189.03
2023-01-29T22:04:08.305Z,100179.75
2023-01-29T22:06:38.125Z,100189.91
2023-01-29T22:09:07.140Z,100169.63
2023-01-29T22:11:35.864Z,100169.63
2023-01-29T22:14:04.250Z,100162.00
2023-01-29T22:16:32.619Z,100150.19
2023-01-29T22:19:01.414Z,100167.94
2023-01-29T22:21:29.846Z,100149.41
2023-01-29T22:23:59.565Z,100148.69
2023-01-29T22:26:29.679Z,100138.53
2023-01-29T22:28:58.096Z,100123.22
2023-01-29T22:31:26.559Z,100121.59
2023-01-29T22:33:58.741Z,100125.84
2023-01-29T22:36:27.198Z,100120.78
2023-01-29T22:38:55.621Z,100113.16
2023-01-29T22:41:25.525Z,100105.56
2023-01-29T22:43:53.934Z,100083.59
2023-01-29T22:46:22.823Z,100089.59
2023-01-29T22:48:51.264Z,100078.66
2023-01-29T22:51:20.705Z,100077.84
2023-01-29T22:53:53.599Z,100078.81
2023-01-29T22:56:26.629Z,100069.50
2023-01-29T22:58:57.081Z,100056.00
2023-01-29T23:01:27.908Z,100052.63
2023-01-29T23:03:56.678Z,100051.81
2023-01-29T23:06:25.577Z,100041.66
2023-01-29T23:08:53.978Z,100041.63
2023-01-29T23:11:24.399Z,100021.38
2023-01-29T23:13:55.909Z,100017.13
2023-01-29T23:16:28.234Z,100016.44
2023-01-29T23:18:57.853Z,100019.00
2023-01-29T23:21:27.727Z,100013.94
2023-01-29T23:23:58.425Z,100019.09
2023-01-29T23:29:11.267Z,100003.97
2023-01-29T23:32:11.023Z,99995.53
2023-01-29T23:34:40.006Z,100002.41
2023-01-29T23:37:08.519Z,99995.69
2023-01-29T23:39:36.974Z,99992.34
2023-01-29T23:42:06.313Z,99990.72
2023-01-29T23:44:55.039Z,99991.59
2023-01-29T23:47:25.818Z,99983.97
2023-01-29T23:49:54.382Z,99976.44
2023-01-29T23:52:22.836Z,99970.53
2023-01-29T23:54:51.351Z,99970.53
2023-01-29T23:57:19.767Z,99975.66
2023-01-29T23:59:48.202Z,99970.53
